METAR Formatted Surface Weather Observation
Issued by NWS

Home | Current Version | Previous Version | Text Only | Print | Product List | Glossary On
Versions: 1 2 3 4 5 6 7 8 9 10 11 12
000
SAUS45 KPSR 231758
MTRFHU
METAR KFHU 231756Z AUTO VRB03KT 10SM FEW055 25/16 A3015 RMK AO2
SLP154 T02500156 10256 20161 50000 $



USA.gov is the U.S. government's official web portal to all federal, state and local government web resources and services.